Track Шишковский Константин

Time Latitude Longitude Accuracy (66% radius in meters) Altitude (meters) Speed (km/hour) Bearing (degrees) Battery (%) GPS flag
11:05:12 44.636665 39.180220 7.8000001907349 133.2 3.7878408432007 235.22999572754 18 1 delete
11:05:11 44.636697 39.180265 7.8000001907349 133.3 3.8784320354462 236.00999450684 18 1 delete
11:05:09 44.636792 39.180355 7.8000001907349 133.5 3.9293894767761 221.4700012207 18 1 delete
11:05:07 44.636927 39.180452 7.9000000953674 133.7 3.6241590976715 220.61000061035 18 1 delete
11:05:06 44.637012 39.180497 7.9000000953674 133.8 3.6483511924744 214.4700012207 18 1 delete
11:05:05 44.637153 39.180588 8 134 3.6380567550659 216.38000488281 18 1 delete
11:05:04 44.637345 39.180727 7.4000000953674 134.2 3.6447479724884 223.75999450684 18 1 delete
11:05:03 44.637380 39.181002 8 134.5 3.5798931121826 226.83999633789 18 1 delete
11:05:02 44.637328 39.181212 8.8000001907349 134.5 3.6123206615448 232.19999694824 18 1 delete
11:05:00 44.636830 39.182543 7.5999999046326 135.6 3.3148112297058 209.13000488281 18 1 delete
11:04:56 44.636670 39.180818 7.9000000953674 135.1 3.2412059307098 251.75 18 1 delete
11:04:52 44.636702 39.180940 7.8000001907349 133.4 3.5248177051544 230.02000427246 18 1 delete
11:04:50 44.636748 39.181008 7.8000001907349 132.3 3.5778341293335 230.22999572754 18 1 delete
11:04:49 44.636732 39.181088 7.9000000953674 133.6 3.5160675048828 234.0299987793 18 1 delete
11:04:46 44.636685 39.181200 7.9000000953674 131.9 3.6529836654663 201.22999572754 18 1 delete
11:04:44 44.636775 39.181190 7.8000001907349 130.2 3.439888715744 217.36000061035 18 1 delete
11:04:43 44.636880 39.181227 7.8000001907349 129.7 3.1516442298889 225.66999816895 18 1 delete
11:04:41 44.636968 39.181282 7.8000001907349 128.2 2.6755261421204 234.66999816895 18 1 delete
11:04:39 44.637022 39.181350 7.8000001907349 126.9 2.2194821834564 236.07000732422 18 1 delete
11:04:38 44.637067 39.181363 7.8000001907349 126.2 2.1520535945892 250.75999450684 18 1 delete
11:04:35 44.637150 39.181468 7.8000001907349 124.3 1.8041013479233 327.30999755859 18 1 delete
11:04:31 44.637062 39.181540 7.8000001907349 120.7 1.8807950019836 246.41999816895 18 1 delete
11:04:27 44.637105 39.181652 7.6999998092651 118.1 2.1010961532593 253.78999328613 18 1 delete
11:04:26 44.637090 39.181665 7.6999998092651 117.7 2.2287471294403 244.03999328613 18 1 delete
11:04:18 44.637162 39.181750 7.6999998092651 112.1 2.908180475235 332.07000732422 18 1 delete
11:04:16 44.637055 39.181747 7.6999998092651 110.9 2.6518487930298 323.41000366211 18 1 delete
11:04:13 44.636927 39.181755 7.6999998092651 108.7 2.3260297775269 293.73999023438 18 1 delete
11:04:11 44.636827 39.181800 7.8000001907349 107.4 1.8859422206879 267.98001098633 18 1 delete
11:04:06 44.636785 39.181923 7.6999998092651 103.1 1.5832855701447 242.66999816895 18 1 delete
11:04:05 44.636763 39.181998 7.6999998092651 102.2 1.5143127441406 231.75999450684 18 1 delete
11:04:01 44.636750 39.182083 7.6999998092651 98.7 1.6882889270782 44.659999847412 18 1 delete
11:03:57 44.636662 39.182035 7.6999998092651 95.2 1.7649824619293 111.37000274658 18 1 delete
11:03:54 44.636690 39.181923 7.5999999046326 92.3 1.7922627925873 88.290000915527 18 1 delete
11:03:47 44.636718 39.181885 7.6999998092651 85.8 2.0388147830963 186.82000732422 18 1 delete
11:03:43 44.636812 39.181893 7.5999999046326 81.8 1.6507141590118 178.44999694824 18 1 delete
11:03:41 44.636935 39.181895 7.5999999046326 79.4 1.208567738533 35.680000305176 18 1 delete
11:03:32 44.637017 39.181815 7.6999998092651 71.4 1.522033572197 344.66000366211 18 1 delete
11:03:31 44.636963 39.181828 7.6999998092651 71.1 1.7788800001144 42.569999694824 18 1 delete
11:03:30 44.636893 39.181845 7.6999998092651 70.6 2.0933752059937 14.520000457764 18 1 delete
11:03:28 44.636813 39.181935 7.8000001907349 70.1 2.4294888973236 314.01998901367 18 1 delete
11:03:23 44.636737 39.182018 7.6999998092651 70 2.2601451873779 119.69000244141 18 1 delete
11:03:21 44.636773 39.181990 7.6999998092651 69.8 1.9744744300842 113.54000091553 18 1 delete
11:03:13 44.636830 39.181958 7.6999998092651 69 2.1793339252472 171.36000061035 22 1 delete
11:03:10 44.636972 39.181900 7.8000001907349 69.1 2.8083243370056 256.26998901367 22 1 delete
11:03:09 44.637050 39.181890 7.8000001907349 69 3.1948807239532 322.01998901367 22 1 delete
11:03:04 44.637127 39.181915 7.8000001907349 69.4 3.6540131568909 325.39001464844 22 1 delete
11:03:00 44.637112 39.182043 7.8000001907349 70.3 3.2643682956696 343.38000488281 22 1 delete
11:02:58 44.637003 39.182135 7.8000001907349 70.3 3.081127166748 337.01000976562 22 1 delete
11:02:56 44.636882 39.182285 7.8000001907349 70.3 3.502170085907 1.3300000429153 22 1 delete
11:02:54 44.636852 39.182430 7.6999998092651 70.2 3.8377687931061 49.400001525879 22 1 delete